Boomer, West Virginia
Current Conditions -  °F | °C
As of 7:54 PM on Wednesday 17 Dec 2014 (Local Time) from KCRW Reporting Station
Overcast Overcast  
Wind Chill: 29°   Ceiling: 2300
Heat Index: 35°   Visibility: 10mi
Dew Point: 26°   Wind: 7mph
Humidity: 70%   Direction: 270°W
Pressure: 30.19"   Gusts: NA
Location:  38.15°N, 81.29°W
Report Text: KCRW 180054Z 27006KT 10SM OVC023 02/M03 A3019 RMK AO2 SLP229 T00171033
Loading
Personal Weather Stations






























Interactive Weather Map New forecast layout! Learn more

10-Day Weather Forecast

Advertisements
Track Severe Weather on mobile